Time;durP1;ratioP1;P1;durP2;ratioP2;P2;SDS_P1;SDS_P2;PMS_P1;PMS_P2;Temp;Humidity;BMP_temperature;BMP_pressure;BME280_temperature;BME280_humidity;BME280_pressure;Samples;Min_cycle;Max_cycle;Signal;HPM_P1;HPM_P2
2021/10/16 00:01:51;;;;;;;12.57;8.98;;;9.70;27.00;;;;;;5077290;28;20043;-70
2021/10/16 00:04:21;;;;;;;14.18;10.15;;;9.70;27.50;;;;;;5077466;28;20498;-69
2021/10/16 00:06:50;;;;;;;13.10;9.52;;;9.70;28.00;;;;;;5081934;28;20499;-69
2021/10/16 00:09:21;;;;;;;11.73;8.88;;;9.70;28.50;;;;;;5076149;28;20800;-69
2021/10/16 00:11:51;;;;;;;14.63;9.07;;;9.60;28.30;;;;;;5075042;28;20043;-69
2021/10/16 00:14:19;;;;;;;13.45;8.95;;;9.60;28.50;;;;;;5082323;28;20756;-69
2021/10/16 00:16:48;;;;;;;12.30;9.13;;;9.60;28.50;;;;;;5072173;28;20049;-68
2021/10/16 00:19:16;;;;;;;12.38;9.68;;;9.50;29.30;;;;;;5077705;28;20087;-69
2021/10/16 00:21:47;;;;;;;16.65;10.10;;;9.50;29.30;;;;;;5074339;28;20036;-69
2021/10/16 00:24:16;;;;;;;11.75;9.25;;;9.50;29.20;;;;;;5071999;28;20498;-69
2021/10/16 00:26:45;;;;;;;13.25;8.52;;;9.40;29.30;;;;;;5077758;28;20041;-70
2021/10/16 00:29:15;;;;;;;14.98;9.63;;;9.40;29.50;;;;;;5081036;28;20037;-69
2021/10/16 00:31:43;;;;;;;12.98;8.88;;;9.30;30.60;;;;;;5073677;28;20124;-70
2021/10/16 00:34:12;;;;;;;12.82;8.90;;;9.20;31.20;;;;;;5079483;28;20130;-70
2021/10/16 00:36:41;;;;;;;14.63;9.32;;;9.10;32.10;;;;;;5076787;28;20062;-70
2021/10/16 00:39:10;;;;;;;11.77;8.82;;;9.10;33.40;;;;;;5073984;28;20108;-70
2021/10/16 00:41:41;;;;;;;12.30;9.35;;;9.00;33.90;;;;;;5083067;28;20052;-69
2021/10/16 00:44:12;;;;;;;12.30;9.13;;;9.00;34.10;;;;;;5078259;28;20487;-69
2021/10/16 00:46:42;;;;;;;12.82;9.02;;;8.90;34.10;;;;;;5074697;28;20127;-70
2021/10/16 00:49:12;;;;;;;11.98;9.13;;;8.80;34.50;;;;;;5085404;28;20047;-70
2021/10/16 00:51:41;;;;;;;12.55;9.00;;;8.80;35.00;;;;;;5072932;28;20044;-69
2021/10/16 00:54:11;;;;;;;13.77;8.73;;;8.80;35.20;;;;;;5078748;28;20044;-69
2021/10/16 00:56:41;;;;;;;13.82;9.25;;;8.80;34.50;;;;;;5082203;28;20052;-70
2021/10/16 00:59:10;;;;;;;13.73;10.15;;;8.80;34.80;;;;;;5077305;28;20052;-69
2021/10/16 01:01:38;;;;;;;14.07;9.25;;;8.80;34.60;;;;;;5080459;28;20506;-71
2021/10/16 01:04:11;;;;;;;14.10;9.82;;;8.80;35.20;;;;;;5080531;28;20048;-68
2021/10/16 01:06:41;;;;;;;13.20;9.80;;;8.70;34.70;;;;;;5076432;28;20040;-69
2021/10/16 01:09:09;;;;;;;13.05;8.93;;;8.70;36.80;;;;;;5082890;28;20135;-68
2021/10/16 01:11:39;;;;;;;14.68;9.40;;;8.70;36.90;;;;;;5077451;28;20048;-69
2021/10/16 01:14:11;;;;;;;14.77;9.40;;;8.70;37.00;;;;;;5074903;28;20506;-69
2021/10/16 01:16:41;;;;;;;14.00;9.00;;;8.60;36.80;;;;;;5079305;28;20407;-69
2021/10/16 01:19:15;;;;;;;13.52;8.80;;;8.60;37.90;;;;;;5077798;28;20044;-69
2021/10/16 01:21:50;;;;;;;13.13;9.07;;;8.70;38.40;;;;;;5073817;28;20495;-70
2021/10/16 01:24:24;;;;;;;14.30;8.80;;;8.70;37.90;;;;;;5086285;28;20446;-70
2021/10/16 01:26:52;;;;;;;14.40;8.63;;;8.80;37.40;;;;;;5077006;28;20042;-69
2021/10/16 01:29:23;;;;;;;13.18;9.15;;;8.80;36.40;;;;;;5077066;28;20044;-69
2021/10/16 01:31:51;;;;;;;13.88;8.68;;;8.80;37.00;;;;;;5086112;28;20048;-69
2021/10/16 01:34:19;;;;;;;13.35;9.02;;;8.80;37.00;;;;;;5071795;28;20048;-69
2021/10/16 01:36:52;;;;;;;13.15;9.38;;;8.80;37.00;;;;;;5061999;28;20047;-69
2021/10/16 01:39:23;;;;;;;15.50;9.55;;;8.80;37.00;;;;;;5059114;28;20074;-69
2021/10/16 01:41:54;;;;;;;16.15;10.05;;;8.90;37.00;;;;;;5054198;28;20052;-69
2021/10/16 01:44:22;;;;;;;13.45;9.40;;;8.80;35.70;;;;;;5062995;28;20096;-69
2021/10/16 01:46:50;;;;;;;13.25;9.40;;;8.80;36.70;;;;;;5062053;28;20056;-69
2021/10/16 01:49:20;;;;;;;14.98;9.57;;;8.80;37.00;;;;;;5053012;28;20067;-69
2021/10/16 01:51:54;;;;;;;14.27;9.80;;;8.90;37.10;;;;;;5062449;28;20144;-69
2021/10/16 01:54:22;;;;;;;13.02;9.52;;;8.90;36.60;;;;;;5062273;28;20119;-69
2021/10/16 01:56:50;;;;;;;16.17;10.30;;;8.90;35.60;;;;;;5060320;28;20120;-69
2021/10/16 01:59:21;;;;;;;15.70;10.77;;;9.00;35.50;;;;;;5062594;28;20048;-69
2021/10/16 02:02:10;;;;;;;17.92;10.88;;;9.00;36.20;;;;;;5061801;28;20056;-69
2021/10/16 02:04:39;;;;;;;18.00;10.93;;;8.90;37.10;;;;;;5058491;28;20561;-69
2021/10/16 02:07:09;;;;;;;14.70;10.07;;;8.90;37.10;;;;;;5057147;28;20072;-68
2021/10/16 02:09:37;;;;;;;15.32;10.02;;;8.90;37.10;;;;;;5053737;28;20160;-70
2021/10/16 02:12:05;;;;;;;14.45;9.80;;;9.00;35.80;;;;;;5061656;28;20053;-69
2021/10/16 02:14:33;;;;;;;14.10;9.32;;;9.00;36.00;;;;;;5050136;28;20072;-69
2021/10/16 02:17:02;;;;;;;17.02;10.63;;;8.90;36.40;;;;;;5052322;28;20516;-69
2021/10/16 02:19:33;;;;;;;12.60;8.80;;;8.90;37.10;;;;;;5056718;28;20075;-68
2021/10/16 02:22:01;;;;;;;13.90;9.90;;;8.90;37.10;;;;;;5055829;28;20067;-71
2021/10/16 02:24:31;;;;;;;14.30;9.73;;;8.90;37.00;;;;;;5053035;28;20861;-70
2021/10/16 02:27:02;;;;;;;12.90;9.85;;;8.90;36.20;;;;;;5060307;28;20156;-69
2021/10/16 02:29:30;;;;;;;15.55;10.20;;;9.00;37.10;;;;;;5052967;28;20132;-69
2021/10/16 02:32:00;;;;;;;12.38;9.43;;;9.00;37.00;;;;;;5057619;28;20067;-69
2021/10/16 02:34:28;;;;;;;12.95;9.88;;;9.10;36.00;;;;;;5055949;28;20048;-69
2021/10/16 02:36:58;;;;;;;16.73;10.80;;;9.00;35.40;;;;;;5057614;28;20122;-69
2021/10/16 02:39:27;;;;;;;18.23;9.93;;;9.00;35.40;;;;;;5059064;28;20047;-69
2021/10/16 02:41:58;;;;;;;18.20;10.05;;;9.10;35.60;;;;;;5056334;28;20044;-69
2021/10/16 02:44:26;;;;;;;14.95;9.48;;;9.10;35.60;;;;;;5056153;28;20077;-69
2021/10/16 02:46:54;;;;;;;14.93;9.55;;;9.00;35.20;;;;;;5056140;28;20056;-69
2021/10/16 02:49:25;;;;;;;14.23;10.05;;;9.00;35.20;;;;;;5051267;28;20411;-69
2021/10/16 02:51:54;;;;;;;15.20;9.70;;;9.00;36.00;;;;;;5052939;28;20082;-69
2021/10/16 02:54:24;;;;;;;13.80;9.75;;;9.00;35.80;;;;;;5059891;28;20097;-69
2021/10/16 02:56:52;;;;;;;12.07;9.50;;;9.00;36.20;;;;;;5051244;28;20076;-69
2021/10/16 02:59:22;;;;;;;15.32;9.48;;;9.10;36.30;;;;;;5059602;28;20044;-69
2021/10/16 03:01:50;;;;;;;14.98;9.13;;;9.00;37.10;;;;;;5054417;28;20045;-69
2021/10/16 03:04:23;;;;;;;13.07;8.90;;;9.00;37.20;;;;;;5054218;28;20040;-69
2021/10/16 03:06:51;;;;;;;15.27;9.38;;;9.00;37.20;;;;;;5061516;28;20055;-69
2021/10/16 03:09:19;;;;;;;15.10;10.30;;;9.00;37.40;;;;;;5054961;28;20075;-68
2021/10/16 03:11:50;;;;;;;15.95;10.68;;;9.00;37.20;;;;;;5053015;28;20400;-69
2021/10/16 03:14:23;;;;;;;14.25;10.20;;;9.00;37.20;;;;;;5047797;28;20388;-69
2021/10/16 03:16:55;;;;;;;17.13;10.43;;;9.00;37.20;;;;;;5053569;28;20090;-69
2021/10/16 03:19:23;;;;;;;16.92;9.55;;;9.00;37.20;;;;;;5060638;28;20508;-70
2021/10/16 03:21:56;;;;;;;14.15;9.90;;;9.10;37.20;;;;;;5064745;28;20044;-69
2021/10/16 03:24:24;;;;;;;14.80;9.63;;;8.90;37.70;;;;;;5057818;28;20520;-70
2021/10/16 03:26:52;;;;;;;14.95;9.40;;;8.80;38.80;;;;;;5062868;28;20602;-69
2021/10/16 03:29:20;;;;;;;13.00;9.50;;;8.90;38.70;;;;;;5065262;28;20143;-69
2021/10/16 03:31:50;;;;;;;16.10;9.77;;;8.90;38.90;;;;;;5058116;28;20066;-70
2021/10/16 03:34:18;;;;;;;13.98;9.82;;;8.90;39.10;;;;;;5066457;28;20041;-69
2021/10/16 03:36:46;;;;;;;15.13;10.30;;;8.90;38.70;;;;;;5059409;28;20036;-69
2021/10/16 03:39:17;;;;;;;18.45;11.80;;;8.80;39.50;;;;;;5057409;28;20041;-69
2021/10/16 03:41:45;;;;;;;12.40;9.10;;;8.80;40.20;;;;;;5064138;28;20512;-69
2021/10/16 03:44:13;;;;;;;13.63;10.18;;;8.80;40.70;;;;;;5057995;28;20140;-69
2021/10/16 03:46:41;;;;;;;14.98;9.60;;;8.90;40.60;;;;;;5056676;28;20835;-69
2021/10/16 03:49:14;;;;;;;13.13;9.57;;;8.90;40.30;;;;;;5063510;28;20126;-68
2021/10/16 03:51:42;;;;;;;12.63;9.30;;;8.80;40.40;;;;;;5057107;28;20072;-69
2021/10/16 03:54:10;;;;;;;14.70;10.45;;;8.70;40.80;;;;;;5043930;28;20052;-69
2021/10/16 03:56:41;;;;;;;15.82;10.25;;;8.80;41.20;;;;;;5060208;28;20413;-69
2021/10/16 03:59:13;;;;;;;14.57;9.85;;;8.70;41.20;;;;;;5054362;28;20072;-69
2021/10/16 04:01:44;;;;;;;14.57;9.93;;;8.70;41.20;;;;;;5060284;28;20045;-69
2021/10/16 04:04:14;;;;;;;18.33;10.38;;;8.70;41.90;;;;;;5052222;28;20094;-69
2021/10/16 04:06:45;;;;;;;14.52;9.73;;;8.70;42.10;;;;;;5058048;28;20048;-69
2021/10/16 04:09:15;;;;;;;13.50;8.80;;;8.70;42.10;;;;;;5062731;28;20076;-69
2021/10/16 04:11:44;;;;;;;13.68;9.75;;;8.70;41.30;;;;;;5058807;28;20123;-69
2021/10/16 04:14:17;;;;;;;13.13;9.38;;;8.70;42.20;;;;;;5053997;28;20110;-69
2021/10/16 04:16:50;;;;;;;14.32;9.38;;;8.60;42.50;;;;;;5062077;28;20044;-70
2021/10/16 04:19:19;;;;;;;14.85;10.07;;;8.50;42.90;;;;;;5053063;28;20140;-69
2021/10/16 04:21:49;;;;;;;13.25;9.68;;;8.60;44.10;;;;;;5063525;28;20103;-69
2021/10/16 04:24:17;;;;;;;14.07;10.07;;;8.50;43.90;;;;;;5061115;28;20041;-69
2021/10/16 04:26:48;;;;;;;14.85;9.90;;;8.50;44.40;;;;;;5055335;28;20100;-69
2021/10/16 04:29:18;;;;;;;14.13;10.10;;;8.50;44.30;;;;;;5053918;28;20436;-69
2021/10/16 04:31:46;;;;;;;14.70;9.98;;;8.50;45.00;;;;;;5060903;28;20136;-69
2021/10/16 04:34:14;;;;;;;15.80;10.20;;;8.60;45.20;;;;;;5053797;28;20423;-69
2021/10/16 04:36:48;;;;;;;14.25;9.27;;;8.50;45.00;;;;;;5057600;28;20044;-69
2021/10/16 04:39:21;;;;;;;12.15;9.35;;;8.50;45.10;;;;;;5061652;28;20554;-69
2021/10/16 04:41:50;;;;;;;15.27;10.15;;;8.50;45.00;;;;;;5055515;28;20040;-69
2021/10/16 04:44:22;;;;;;;13.57;9.15;;;8.60;45.10;;;;;;5058466;28;20402;-69
2021/10/16 04:46:52;;;;;;;15.15;9.63;;;8.60;45.10;;;;;;5058947;28;20033;-69
2021/10/16 04:49:24;;;;;;;12.32;9.38;;;8.60;44.30;;;;;;5052049;28;20131;-69
2021/10/16 04:51:54;;;;;;;12.55;9.38;;;8.50;44.60;;;;;;5056807;28;20119;-69
2021/10/16 04:54:22;;;;;;;16.60;9.10;;;8.60;44.60;;;;;;5063126;28;20411;-70
2021/10/16 04:56:54;;;;;;;19.35;10.40;;;8.50;45.10;;;;;;5058182;28;20063;-69
2021/10/16 04:59:25;;;;;;;14.40;9.32;;;8.50;45.10;;;;;;5057304;28;20045;-69
2021/10/16 05:01:54;;;;;;;13.07;9.52;;;8.50;45.10;;;;;;5059429;28;20047;-69
2021/10/16 05:04:26;;;;;;;13.02;9.77;;;8.40;45.40;;;;;;5051490;28;20810;-68
2021/10/16 05:06:59;;;;;;;14.73;9.82;;;8.40;45.80;;;;;;5059752;28;20059;-69
2021/10/16 05:09:32;;;;;;;16.02;10.70;;;8.40;46.20;;;;;;5062042;28;20047;-69
2021/10/16 05:12:01;;;;;;;14.32;10.25;;;8.40;45.80;;;;;;5058939;28;20040;-69
2021/10/16 05:14:33;;;;;;;15.18;9.95;;;8.40;45.10;;;;;;5061526;28;20057;-69
2021/10/16 05:17:07;;;;;;;16.20;10.70;;;8.40;46.30;;;;;;5061020;28;20055;-69
2021/10/16 05:19:39;;;;;;;14.25;9.85;;;8.40;46.60;;;;;;5055920;28;20147;-68
2021/10/16 05:22:10;;;;;;;14.52;10.05;;;8.40;46.20;;;;;;5059244;28;20048;-69
2021/10/16 05:24:39;;;;;;;11.73;8.55;;;8.40;46.60;;;;;;5060714;28;20041;-68
2021/10/16 05:27:07;;;;;;;13.35;9.75;;;8.30;46.00;;;;;;5052971;28;20177;-68
2021/10/16 05:29:40;;;;;;;13.27;10.07;;;8.40;46.70;;;;;;5058046;28;20040;-69
2021/10/16 05:32:08;;;;;;;12.80;9.40;;;8.40;46.80;;;;;;5061538;28;20235;-69
2021/10/16 05:34:36;;;;;;;15.85;10.70;;;8.40;47.20;;;;;;5053051;28;20056;-69
2021/10/16 05:37:05;;;;;;;14.85;10.43;;;8.30;46.50;;;;;;5059936;28;20084;-69
2021/10/16 05:39:34;;;;;;;13.38;9.82;;;8.30;47.50;;;;;;5056384;28;20480;-69
2021/10/16 05:42:07;;;;;;;13.15;10.38;;;8.30;47.80;;;;;;5055211;28;20071;-69
2021/10/16 05:44:35;;;;;;;14.25;9.95;;;8.30;47.10;;;;;;5063310;28;20045;-69
2021/10/16 05:47:04;;;;;;;18.10;10.27;;;8.30;47.90;;;;;;5057156;28;20053;-69
2021/10/16 05:49:34;;;;;;;15.35;11.07;;;8.30;48.70;;;;;;5056224;28;20952;-68
2021/10/16 05:52:02;;;;;;;14.32;10.48;;;8.30;48.00;;;;;;5059387;28;20134;-70
2021/10/16 05:54:30;;;;;;;12.02;9.77;;;8.20;47.50;;;;;;5055605;28;20052;-70
2021/10/16 05:56:59;;;;;;;18.25;10.77;;;8.30;47.80;;;;;;5060935;28;20049;-70
2021/10/16 05:59:33;;;;;;;14.65;10.55;;;8.30;48.00;;;;;;5060606;28;20645;-68
2021/10/16 06:02:01;;;;;;;15.05;10.95;;;8.30;47.60;;;;;;5048353;28;20480;-68
2021/10/16 06:04:32;;;;;;;14.23;10.90;;;8.20;48.40;;;;;;5063232;28;20045;-68
2021/10/16 06:07:00;;;;;;;16.83;11.40;;;8.20;48.80;;;;;;5055260;28;20139;-68
2021/10/16 06:09:29;;;;;;;15.77;11.82;;;8.30;48.50;;;;;;5054988;28;20044;-69
2021/10/16 06:12:01;;;;;;;15.85;10.40;;;8.30;48.60;;;;;;5059969;28;20044;-69
2021/10/16 06:14:32;;;;;;;16.95;10.68;;;8.20;48.00;;;;;;5052056;28;20049;-69
2021/10/16 06:17:06;;;;;;;16.25;10.75;;;8.10;48.90;;;;;;5057902;28;20076;-69
2021/10/16 06:19:34;;;;;;;13.05;10.35;;;8.20;50.20;;;;;;5061230;28;20058;-68
2021/10/16 06:22:02;;;;;;;16.27;10.95;;;8.30;49.40;;;;;;5053819;28;20106;-69
2021/10/16 06:24:30;;;;;;;16.55;10.95;;;8.30;48.40;;;;;;5056790;28;20143;-68
2021/10/16 06:27:01;;;;;;;14.73;11.57;;;8.40;49.00;;;;;;5057287;28;20068;-68
2021/10/16 06:29:31;;;;;;;13.55;10.75;;;8.40;48.30;;;;;;5052686;28;20520;-68
2021/10/16 06:31:59;;;;;;;13.57;10.73;;;8.50;48.20;;;;;;5057933;28;20131;-70
2021/10/16 06:34:27;;;;;;;16.25;10.43;;;8.40;47.10;;;;;;5055273;28;20056;-69
2021/10/16 06:36:55;;;;;;;15.70;10.65;;;8.50;47.50;;;;;;5056434;28;20048;-69
2021/10/16 06:39:29;;;;;;;15.68;10.35;;;8.40;46.20;;;;;;5059502;28;20499;-69
2021/10/16 06:41:57;;;;;;;16.52;10.98;;;8.50;46.10;;;;;;5038898;28;20059;-69
2021/10/16 06:44:28;;;;;;;16.48;10.70;;;8.60;46.30;;;;;;5045552;28;20390;-69
2021/10/16 06:46:57;;;;;;;13.32;9.98;;;8.60;45.20;;;;;;5048899;28;20044;-69
2021/10/16 06:49:25;;;;;;;17.05;10.48;;;8.60;45.20;;;;;;5041716;28;20053;-69
2021/10/16 06:51:59;;;;;;;12.25;9.82;;;8.60;44.40;;;;;;5050994;28;20044;-69
2021/10/16 06:54:29;;;;;;;16.10;10.48;;;8.70;44.40;;;;;;5051089;28;20496;-69
2021/10/16 06:56:57;;;;;;;14.60;10.10;;;8.80;43.00;;;;;;5052209;28;20051;-68
2021/10/16 06:59:25;;;;;;;13.95;10.20;;;8.90;43.20;;;;;;5053599;28;20061;-70
2021/10/16 07:01:55;;;;;;;18.02;10.82;;;8.90;42.20;;;;;;5049554;28;20141;-69
2021/10/16 07:04:26;;;;;;;15.48;10.98;;;8.90;43.10;;;;;;5049867;28;20045;-69
2021/10/16 07:06:59;;;;;;;14.98;10.07;;;9.00;42.40;;;;;;5056451;28;20154;-69
2021/10/16 07:09:27;;;;;;;16.92;10.65;;;8.90;41.30;;;;;;5046835;28;20053;-69
2021/10/16 07:11:56;;;;;;;13.57;10.40;;;9.10;41.50;;;;;;5048533;28;20129;-70
2021/10/16 07:14:25;;;;;;;18.45;9.88;;;9.20;40.20;;;;;;5034147;28;20072;-69
2021/10/16 07:16:55;;;;;;;14.85;10.32;;;9.10;37.30;;;;;;5051081;28;20045;-68
2021/10/16 07:19:23;;;;;;;12.05;9.73;;;9.20;38.70;;;;;;5050852;28;20503;-68
2021/10/16 07:21:52;;;;;;;14.05;9.75;;;9.40;38.70;;;;;;5049710;28;20144;-69
2021/10/16 07:24:21;;;;;;;14.90;10.38;;;9.50;38.00;;;;;;5053177;28;20045;-69
2021/10/16 07:26:51;;;;;;;13.80;10.52;;;9.40;38.20;;;;;;5050877;28;20045;-69
2021/10/16 07:29:22;;;;;;;19.08;10.80;;;9.50;37.60;;;;;;5052316;28;20045;-71
2021/10/16 07:31:51;;;;;;;14.65;10.25;;;9.40;37.50;;;;;;5049508;28;20041;-69
2021/10/16 07:34:21;;;;;;;16.50;10.75;;;9.50;36.20;;;;;;5051732;28;20131;-69
2021/10/16 07:36:49;;;;;;;14.27;11.00;;;9.50;36.20;;;;;;5050914;28;20123;-70
2021/10/16 07:39:17;;;;;;;14.80;11.50;;;9.60;37.70;;;;;;5048807;28;20131;-69
2021/10/16 07:41:49;;;;;;;17.80;11.07;;;9.70;36.30;;;;;;5053212;28;20041;-69
2021/10/16 07:44:18;;;;;;;14.18;10.90;;;9.80;34.10;;;;;;5045766;28;20139;-70
2021/10/16 07:46:49;;;;;;;15.82;11.40;;;9.80;32.60;;;;;;5049588;28;20139;-69
2021/10/16 07:49:22;;;;;;;17.08;10.73;;;9.80;32.70;;;;;;5048645;28;20051;-69
2021/10/16 07:51:53;;;;;;;14.52;10.90;;;9.80;32.60;;;;;;5051925;28;20045;-69
2021/10/16 07:54:24;;;;;;;14.07;11.02;;;9.90;30.80;;;;;;5049454;28;20049;-70
2021/10/16 07:57:01;;;;;;;17.45;10.85;;;9.90;30.80;;;;;;5052537;28;20051;-69
2021/10/16 07:59:32;;;;;;;15.13;10.75;;;10.10;29.00;;;;;;5048535;28;20079;-70
2021/10/16 08:02:00;;;;;;;17.38;11.85;;;10.00;29.70;;;;;;5051105;28;23041;-70
2021/10/16 08:04:30;;;;;;;14.38;11.93;;;9.90;32.60;;;;;;5053802;28;20656;-69
2021/10/16 08:06:58;;;;;;;19.48;11.73;;;10.00;31.70;;;;;;5053416;28;20448;-70
2021/10/16 08:09:26;;;;;;;15.88;12.20;;;10.00;29.50;;;;;;5051117;28;20065;-69
2021/10/16 08:11:54;;;;;;;16.73;12.05;;;10.00;29.10;;;;;;5052269;28;20044;-69
2021/10/16 08:14:26;;;;;;;17.63;12.10;;;10.30;28.30;;;;;;5049057;28;20053;-69
2021/10/16 08:16:54;;;;;;;15.85;11.85;;;10.20;26.70;;;;;;5051415;28;20108;-70
2021/10/16 08:19:22;;;;;;;15.43;11.68;;;10.30;26.30;;;;;;5051101;28;20055;-71
2021/10/16 08:21:51;;;;;;;15.50;11.57;;;10.30;26.90;;;;;;5050042;28;20041;-70
2021/10/16 08:24:19;;;;;;;15.95;11.52;;;10.30;27.70;;;;;;5054818;28;20219;-70
2021/10/16 08:26:50;;;;;;;17.38;11.80;;;10.30;27.90;;;;;;5055077;28;20059;-69
2021/10/16 08:29:18;;;;;;;17.52;11.85;;;10.30;25.60;;;;;;5047346;28;20400;-70
2021/10/16 08:31:46;;;;;;;14.32;11.20;;;10.40;25.80;;;;;;5052836;28;20135;-70
2021/10/16 08:34:16;;;;;;;21.95;14.60;;;10.40;26.30;;;;;;5051708;28;20044;-70
2021/10/16 08:36:46;;;;;;;17.20;12.63;;;10.40;25.80;;;;;;5051376;28;20068;-69
2021/10/16 08:39:22;;;;;;;16.50;12.68;;;10.50;25.90;;;;;;5050125;28;20063;-70
2021/10/16 08:41:55;;;;;;;19.08;13.45;;;10.50;25.70;;;;;;5050143;28;20090;-69
2021/10/16 08:44:30;;;;;;;19.35;13.18;;;10.50;25.00;;;;;;5049959;28;20086;-69
2021/10/16 08:47:01;;;;;;;16.33;12.93;;;10.40;25.80;;;;;;5053168;28;20473;-69
2021/10/16 08:49:34;;;;;;;16.98;13.07;;;10.50;26.20;;;;;;5048782;28;20527;-70
2021/10/16 08:52:02;;;;;;;20.13;12.52;;;10.50;25.50;;;;;;5051476;28;20040;-70
2021/10/16 08:54:39;;;;;;;21.30;14.57;;;10.50;27.10;;;;;;5051675;28;20049;-70
2021/10/16 08:57:09;;;;;;;26.38;16.10;;;10.30;27.30;;;;;;5052443;28;20044;-70
2021/10/16 08:59:40;;;;;;;25.52;16.25;;;10.30;29.10;;;;;;5049605;28;20048;-69
2021/10/16 09:02:09;;;;;;;27.83;17.75;;;10.50;28.50;;;;;;5047556;28;20045;-70
2021/10/16 09:04:38;;;;;;;29.23;17.35;;;10.40;28.00;;;;;;5049687;28;20032;-70
2021/10/16 09:07:19;;;;;;;34.75;18.30;;;10.40;29.10;;;;;;5051589;28;20084;-70
2021/10/16 09:09:55;;;;;;;33.47;18.30;;;10.40;28.20;;;;;;5041206;28;20118;-70
2021/10/16 09:12:43;;;;;;;28.60;17.95;;;10.50;28.20;;;;;;5047525;28;20040;-70
2021/10/16 09:15:22;;;;;;;29.33;18.05;;;10.50;27.90;;;;;;5047017;28;20045;-69
2021/10/16 09:18:03;;;;;;;27.85;17.38;;;10.60;27.70;;;;;;5048208;28;20106;-70
2021/10/16 09:20:34;;;;;;;26.83;16.92;;;10.70;27.30;;;;;;5047985;28;20116;-69
2021/10/16 09:23:06;;;;;;;28.15;17.60;;;10.70;26.20;;;;;;5049066;28;20060;-69
2021/10/16 09:25:39;;;;;;;28.95;17.05;;;10.80;26.00;;;;;;5047404;28;20041;-69
2021/10/16 09:28:14;;;;;;;28.20;17.92;;;10.80;25.00;;;;;;5047633;28;20385;-70
2021/10/16 09:30:45;;;;;;;27.88;18.17;;;10.80;26.10;;;;;;5047581;28;20040;-69
2021/10/16 09:33:19;;;;;;;28.00;18.38;;;10.70;24.60;;;;;;5048421;28;20052;-70
2021/10/16 09:35:48;;;;;;;27.90;17.83;;;10.70;25.20;;;;;;5051129;28;20044;-69
2021/10/16 09:38:16;;;;;;;25.77;17.52;;;10.90;25.20;;;;;;5045399;28;20405;-69
2021/10/16 09:40:47;;;;;;;29.25;17.92;;;10.70;25.20;;;;;;5046578;28;20550;-69
2021/10/16 09:43:19;;;;;;;26.52;16.77;;;10.80;26.40;;;;;;5047186;28;20549;-70
2021/10/16 09:46:13;;;;;;;27.60;16.73;;;11.00;24.90;;;;;;5050704;28;20135;-70
2021/10/16 09:48:47;;;;;;;29.83;17.70;;;11.10;24.10;;;;;;5047275;28;20044;-72
2021/10/16 09:51:18;;;;;;;28.33;17.08;;;11.20;22.80;;;;;;5045667;28;20060;-69
2021/10/16 09:53:51;;;;;;;29.75;18.98;;;11.20;21.90;;;;;;5048390;28;20053;-69
2021/10/16 09:56:21;;;;;;;28.45;17.83;;;11.10;21.80;;;;;;5049280;28;20512;-69
2021/10/16 09:58:51;;;;;;;25.75;17.48;;;11.10;21.70;;;;;;5046451;28;20051;-70
2021/10/16 10:01:21;;;;;;;26.17;17.23;;;11.20;21.70;;;;;;5043974;28;20052;-68
2021/10/16 10:03:49;;;;;;;26.10;17.27;;;11.20;21.20;;;;;;5045782;28;20041;-69
2021/10/16 10:06:22;;;;;;;30.83;20.58;;;11.00;22.20;;;;;;5048165;28;20040;-70
2021/10/16 10:08:51;;;;;;;28.27;18.85;;;11.00;21.70;;;;;;5047524;28;20048;-70
2021/10/16 10:11:21;;;;;;;28.10;18.52;;;11.10;22.80;;;;;;5046248;28;20140;-70
2021/10/16 10:13:52;;;;;;;28.20;18.88;;;11.20;20.60;;;;;;5046756;28;20060;-70
2021/10/16 10:16:21;;;;;;;27.73;17.58;;;11.20;20.60;;;;;;5045329;28;20040;-70
2021/10/16 10:19:08;;;;;;;27.85;17.83;;;11.20;20.90;;;;;;5049389;28;20082;-70
2021/10/16 10:21:40;;;;;;;30.75;18.77;;;11.20;21.50;;;;;;5045045;28;20051;-70
2021/10/16 10:24:14;;;;;;;26.33;17.83;;;11.20;22.30;;;;;;5050070;28;20071;-69
2021/10/16 10:26:45;;;;;;;27.33;18.45;;;11.20;21.70;;;;;;5050261;28;20193;-69
2021/10/16 10:29:17;;;;;;;30.15;17.70;;;11.20;22.20;;;;;;5050658;28;20072;-70
2021/10/16 10:32:04;;;;;;;28.02;18.13;;;11.20;20.30;;;;;;5050311;28;20045;-70
2021/10/16 10:34:36;;;;;;;30.48;19.98;;;11.10;22.80;;;;;;5053156;28;20080;-69
2021/10/16 10:37:14;;;;;;;29.73;19.45;;;11.30;21.60;;;;;;5049335;28;20186;-68
2021/10/16 10:39:54;;;;;;;30.58;19.30;;;11.20;22.00;;;;;;5052926;28;20079;-69
2021/10/16 10:42:50;;;;;;;27.13;18.15;;;11.20;21.70;;;;;;5052492;28;20365;-69
2021/10/16 10:45:38;;;;;;;28.20;19.17;;;11.40;21.10;;;;;;5052280;28;20146;-70
2021/10/16 10:48:17;;;;;;;29.75;19.02;;;11.40;19.50;;;;;;5052919;28;20063;-70
2021/10/16 10:50:57;;;;;;;31.15;19.73;;;11.60;19.20;;;;;;5041548;28;20045;-70
2021/10/16 10:53:34;;;;;;;29.92;19.77;;;11.60;17.60;;;;;;5050155;28;20045;-70
2021/10/16 10:56:07;;;;;;;26.90;18.92;;;11.50;18.50;;;;;;5058852;28;20045;-70
2021/10/16 10:59:11;;;;;;;30.58;20.35;;;11.50;18.60;;;;;;5052916;28;20132;-70
2021/10/16 11:02:08;;;;;;;29.98;18.52;;;11.70;18.10;;;;;;5031292;28;20071;-70
2021/10/16 11:04:49;;;;;;;28.98;18.70;;;11.70;16.20;;;;;;5052507;28;20422;-68
2021/10/16 11:07:33;;;;;;;29.02;19.42;;;11.80;16.20;;;;;;5051710;28;20114;-70
2021/10/16 11:10:02;;;;;;;30.48;20.25;;;11.70;16.70;;;;;;5049564;28;20048;-69
2021/10/16 11:12:32;;;;;;;31.70;21.63;;;11.70;16.40;;;;;;5051436;28;20045;-69
2021/10/16 11:15:06;;;;;;;31.45;20.88;;;11.80;17.20;;;;;;5048794;28;20151;-69
2021/10/16 11:17:40;;;;;;;34.80;21.80;;;11.80;16.70;;;;;;5034044;28;20110;-69
2021/10/16 11:20:11;;;;;;;32.35;21.35;;;11.80;16.80;;;;;;5050176;28;20068;-70
2021/10/16 11:22:46;;;;;;;31.45;20.88;;;11.70;16.20;;;;;;5050285;28;20072;-68
2021/10/16 11:25:16;;;;;;;32.90;19.75;;;11.70;17.10;;;;;;5057895;28;20053;-70
2021/10/16 11:28:05;;;;;;;28.75;20.45;;;11.80;16.30;;;;;;5045783;28;20049;-70
2021/10/16 11:30:37;;;;;;;32.42;21.13;;;11.80;15.40;;;;;;5048763;28;20488;-69
2021/10/16 11:33:09;;;;;;;28.67;20.33;;;11.60;16.90;;;;;;5067246;28;20072;-68
2021/10/16 11:35:38;;;;;;;31.55;20.38;;;11.80;16.80;;;;;;5050705;28;20075;-70
2021/10/16 11:38:07;;;;;;;33.92;20.08;;;12.00;15.90;;;;;;5044662;28;20076;-70
2021/10/16 11:40:37;;;;;;;26.38;18.95;;;11.90;15.00;;;;;;5051112;28;20083;-70
2021/10/16 11:43:11;;;;;;;27.95;19.02;;;12.30;14.40;;;;;;5048711;28;20059;-70
2021/10/16 11:45:42;;;;;;;28.88;19.05;;;12.00;12.20;;;;;;5050829;28;20470;-69
2021/10/16 11:48:16;;;;;;;28.95;19.30;;;11.80;14.40;;;;;;5047707;28;20037;-69
2021/10/16 11:50:46;;;;;;;28.92;18.92;;;12.00;13.30;;;;;;5047611;28;20561;-69
2021/10/16 11:53:17;;;;;;;28.02;18.92;;;12.20;13.20;;;;;;5049936;28;20045;-70
2021/10/16 11:55:54;;;;;;;30.25;19.75;;;12.50;13.10;;;;;;5049579;28;20153;-70
2021/10/16 11:58:29;;;;;;;31.40;20.33;;;12.70;11.30;;;;;;5052352;28;20406;-69
2021/10/16 12:00:59;;;;;;;30.85;19.77;;;12.80;10.80;;;;;;5051020;28;20168;-70
2021/10/16 12:03:38;;;;;;;28.17;18.57;;;12.80;9.70;;;;;;5045694;28;20519;-68
2021/10/16 12:06:08;;;;;;;28.73;19.98;;;12.80;9.70;;;;;;5054498;28;20083;-69
2021/10/16 12:08:44;;;;;;;28.45;19.45;;;13.00;9.80;;;;;;5051642;28;20086;-69
2021/10/16 12:11:20;;;;;;;25.75;18.45;;;13.40;7.60;;;;;;5047616;28;20049;-69
2021/10/16 12:13:56;;;;;;;22.55;16.27;;;13.50;5.40;;;;;;5045525;28;20044;-69
2021/10/16 12:16:33;;;;;;;27.52;19.20;;;13.50;4.70;;;;;;5054189;28;20041;-69
2021/10/16 12:19:03;;;;;;;27.08;19.15;;;13.40;6.40;;;;;;5064841;28;20045;-71
2021/10/16 12:21:37;;;;;;;26.50;18.08;;;13.30;6.30;;;;;;5049868;28;20036;-69
2021/10/16 12:24:13;;;;;;;24.10;17.17;;;13.50;5.10;;;;;;5050738;28;20130;-69
2021/10/16 12:26:43;;;;;;;23.40;16.33;;;13.60;5.00;;;;;;5049733;28;20140;-70
2021/10/16 12:29:26;;;;;;;25.08;17.35;;;13.60;4.30;;;;;;5052905;28;20175;-69
2021/10/16 12:31:56;;;;;;;25.98;17.15;;;13.60;4.30;;;;;;5031770;28;20393;-70
2021/10/16 12:34:30;;;;;;;30.45;17.75;;;13.50;4.70;;;;;;5051449;28;20428;-69
2021/10/16 12:36:59;;;;;;;22.98;16.45;;;13.80;3.80;;;;;;5051586;28;20140;-69
2021/10/16 12:39:30;;;;;;;22.63;15.48;;;13.80;2.90;;;;;;5049691;28;20095;-69
2021/10/16 12:42:10;;;;;;;23.50;16.38;;;13.50;3.50;;;;;;5049231;28;20060;-69
2021/10/16 12:44:44;;;;;;;24.08;16.08;;;13.80;2.90;;;;;;5050461;28;20503;-69
2021/10/16 12:47:15;;;;;;;24.77;17.48;;;13.80;2.90;;;;;;5047661;28;20052;-70
2021/10/16 12:49:46;;;;;;;22.42;16.40;;;13.90;3.10;;;;;;5048705;28;20064;-71
2021/10/16 12:52:29;;;;;;;20.63;15.10;;;13.90;3.50;;;;;;5052943;28;20128;-70
2021/10/16 12:54:59;;;;;;;23.45;16.85;;;14.10;3.10;;;;;;5051190;28;20044;-71
2021/10/16 12:57:30;;;;;;;22.77;15.50;;;13.80;2.90;;;;;;5048983;28;20115;-69
2021/10/16 13:00:08;;;;;;;23.52;15.65;;;13.80;2.90;;;;;;5051885;28;20041;-69